X  Sluiten METAR luchtvaart weer gegevens      EHWO Woensdrecht Air Base
Temperatuur
14°C Temperatuur
10°C Dauwpunt
77% Vochtigheid



Wind
19 KM/U
12 MPH
5 M/S
10 KTS



200°
ZZW
Huidig weer

Wat bewolking Wat bewolking
Luchtdruk 1005.76 (hPa) - 29.7 (inHg)
Zicht 6 (mijl) - 9.7 (km)
Vliegveld
Vliegveld code EHWO

Locatie : Woensdrecht Air Base
Afstand: 32 (km)

Metar:
EHWO 140525Z AUTO 20010KT 150V260 9999 FEW016 BKN020 OVC023 14/10 Q1006 WHT

Tijd: 14-06-2024 07:25 CEST